DKK weather

Chautauqua County-Dunkirk Airport
Dunkirk, New York, United States

Public forecast

Using degrees Fahrenheit for public forecast. Weather courtesy of forecast.io.

Current aviation weather report (METAR) for Chautauqua County-Dunkirk Airport

Retrieved 2019/12/08 14:53 UTC (38 minutes ago):

KDKK 081453Z AUTO 17022G30KT 10SM CLR 04/M09 A3013 RMK AO2 PK WND 18031/1437 SLP210 T00441089 56033

Closest aviation forecast (TAF) to Chautauqua County-Dunkirk Airport

Closest forecast is Chautauqua County-Jamestown Airport, 20.4 nm (37.8 km) S. Retrieved 2019/12/08 12:34 UTC (3 hours ago):

TAF KJHW 081132Z 0812/0912 19009KT P6SM SKC WS020/20040KT FM081400 18014G26KT P6SM BKN150 FM082000 18016G31KT P6SM BKN030 FM090600 18014G27KT P6SM OVC025 FM091100 17010G16KT 6SM BR VCSH OVC015